This is the latest recevied weather packets stored in our database for station/object XE2B-20. If no packets are shown the sender has not sent any weather packets the latest 10 day(s).
| Time | Temp. | Humidity | Pressure | Rain* | Wind** | Luminosity | Snow |
|---|---|---|---|---|---|---|---|
| 1788679942 | 17.22° C | 50% | 807.1 hPa | - | - | - | - |
| 1788678443 | 17.22° C | 49% | 807.1 hPa | - | - | - | - |
| 1788676945 | 17.22° C | 49% | 807.1 hPa | - | - | - | - |
| 1788675449 | 17.78° C | 49% | 807.3 hPa | - | - | - | - |
| 1788673951 | 18.33° C | 48% | 807.5 hPa | - | - | - | - |
| 1788672452 | 18.33° C | 48% | 807.5 hPa | - | - | - | - |
| 1788670954 | 18.33° C | 48% | 807.6 hPa | - | - | - | - |
| 1788669490 | 18.89° C | 47% | 807.5 hPa | - | - | - | - |
| 1788669456 | 18.89° C | 47% | 807.5 hPa | - | - | - | - |
| 1788667959 | 19.44° C | 47% | 807.3 hPa | - | - | - | - |
| 1788666461 | 20° C | 46% | 807.1 hPa | - | - | - | - |
| 1788664964 | 20° C | 47% | 806.5 hPa | - | - | - | - |
| 1788663465 | 20.56° C | 46% | 806.4 hPa | - | - | - | - |
| 1788661975 | 22.22° C | 45% | 806.1 hPa | - | - | - | - |
| 1788660469 | 22.78° C | 45% | 805.3 hPa | - | - | - | - |
| 1788658972 | 22.22° C | 47% | 804.9 hPa | - | - | - | - |
| 1788657475 | 23.33° C | 46% | 804.7 hPa | - | - | - | - |
| 1788655976 | 23.89° C | 47% | 804.4 hPa | - | - | - | - |
| 1788654488 | 26.11° C | 45% | 804.4 hPa | - | - | - | - |
| 1788652978 | 30.56° C | 40% | 804.4 hPa | - | - | - | - |
| 1788651481 | 31.11° C | 40% | 804.3 hPa | - | - | - | - |
| 1788649983 | 32.78° C | 40% | 804.5 hPa | - | - | - | - |
| 1788648484 | 33.33° C | 40% | 804.6 hPa | - | - | - | - |
| 1788646988 | 36.67° C | 36% | 804.6 hPa | - | - | - | - |
| 1788645495 | 37.22° C | 36% | 804.9 hPa | - | - | - | - |
* Rain since midnight (hover to see other rain measurements)
** Current wind speed in m/s (hover to see current wind gust speed)